KDRI/DRI METAR and TAF weather

Enter ICAO airport designator
Station Type Date Time Source
KDRI METAR 2020/01/22 12:15 UTC NOAA

KDRI 221215Z AUTO 09005KT 10SM SCT110 03/M03 A3029 RMK AO2 T00301033


Station Type Date Time Source
KDRI Decoded METAR 2020/01/22 12:15 UTC NOAA

De Ridder, Beauregard Parish Airport, LA, United States (KDRI) 30-49-54N 093-20-23W
Jan 22, 2020 - 07:15 AM EST / 2020.01.22 1215 UTC
Wind: from the E (090 degrees) at 6 MPH (5 KT):0
Visibility: 10 mile(s):0
Sky conditions: partly cloudy
Temperature: 37.4 F (3.0 C)
Dew Point: 26.1 F (-3.3 C)
Relative Humidity: 63%
Pressure (altimeter): 30.29 in. Hg (1025 hPa)
ob: KDRI 221215Z AUTO 09005KT 10SM SCT110 03/M03 A3029 RMK AO2 T00301033
cycle: 12

Station Type Date Time Source
KDRI TAF UTC NOAA

Error!

Example: see airport list